Time;durP1;ratioP1;P1;durP2;ratioP2;P2;SDS_P1;SDS_P2;PMS_P1;PMS_P2;Temp;Humidity;BMP_temperature;BMP_pressure;BME280_temperature;BME280_humidity;BME280_pressure;Samples;Min_cycle;Max_cycle;Signal;HPM_P1;HPM_P2
2023/01/12 00:01:05;;;;;;;25.55;5.40;;;7.90;99.90;;;;;;6096731;23;20010;-82
2023/01/12 00:03:31;;;;;;;21.77;4.47;;;8.00;99.90;;;;;;6121152;23;20049;-83
2023/01/12 00:05:59;;;;;;;22.70;4.25;;;7.90;99.90;;;;;;6122813;23;20021;-83
2023/01/12 00:08:25;;;;;;;23.73;5.35;;;8.00;99.90;;;;;;6123063;23;20014;-83
2023/01/12 00:10:55;;;;;;;16.92;4.07;;;7.90;99.90;;;;;;6122308;23;20041;-83
2023/01/12 00:13:20;;;;;;;23.02;4.43;;;8.00;99.90;;;;;;6098654;23;20017;-83
2023/01/12 00:18:31;;;;;;;22.98;5.35;;;7.90;99.90;;;;;;6098260;23;20022;-83
2023/01/12 00:20:56;;;;;;;18.77;4.70;;;7.90;99.90;;;;;;6122977;23;20056;-83
2023/01/12 00:23:24;;;;;;;25.15;5.38;;;7.80;99.90;;;;;;6122761;23;20013;-83
2023/01/12 00:25:51;;;;;;;29.10;5.28;;;7.90;99.90;;;;;;6113305;23;20093;-82
2023/01/12 00:28:16;;;;;;;27.55;5.72;;;7.90;99.90;;;;;;6155061;23;20105;-83
2023/01/12 00:30:42;;;;;;;31.00;5.25;;;8.00;99.90;;;;;;6154871;23;20092;-83
2023/01/12 00:33:07;;;;;;;29.27;6.15;;;8.00;99.90;;;;;;6152851;23;20021;-83
2023/01/12 00:35:34;;;;;;;27.92;5.85;;;8.00;99.90;;;;;;6153353;23;20448;-83
2023/01/12 00:38:00;;;;;;;23.42;5.00;;;8.30;99.90;;;;;;6153101;23;20057;-83
2023/01/12 00:40:26;;;;;;;26.63;5.88;;;8.00;99.90;;;;;;6154809;23;20104;-82
2023/01/12 00:45:35;;;;;;;34.78;6.03;;;7.90;99.90;;;;;;6155160;23;20044;-83
2023/01/12 00:48:01;;;;;;;27.50;5.47;;;7.90;99.90;;;;;;6153311;23;20013;-83
2023/01/12 00:50:27;;;;;;;33.00;6.10;;;7.80;99.90;;;;;;6155120;23;20518;-83
2023/01/12 00:52:52;;;;;;;28.95;5.20;;;7.80;99.90;;;;;;6153030;23;20017;-83
2023/01/12 00:55:18;;;;;;;27.45;5.50;;;7.80;99.90;;;;;;6152656;23;20070;-82
2023/01/12 00:57:44;;;;;;;32.83;5.70;;;7.70;99.90;;;;;;6154883;23;20448;-83
2023/01/12 01:00:10;;;;;;;25.02;5.32;;;7.80;99.90;;;;;;6153479;23;20017;-83
2023/01/12 01:02:35;;;;;;;23.02;4.53;;;7.80;99.90;;;;;;6128825;23;20401;-83
2023/01/12 01:05:01;;;;;;;25.17;5.38;;;7.90;99.90;;;;;;6155300;23;20010;-83
2023/01/12 01:07:27;;;;;;;18.02;4.13;;;7.90;99.90;;;;;;6154545;23;20017;-83
2023/01/12 01:09:52;;;;;;;22.40;4.25;;;7.90;99.90;;;;;;6152212;23;20018;-83
2023/01/12 01:12:18;;;;;;;21.10;4.55;;;7.80;99.90;;;;;;6154567;23;20045;-83
2023/01/12 01:14:46;;;;;;;22.00;4.47;;;7.80;99.90;;;;;;6153875;23;20068;-84
2023/01/12 01:17:11;;;;;;;18.55;4.63;;;7.80;99.90;;;;;;6154120;23;20009;-83
2023/01/12 01:19:37;;;;;;;24.77;5.15;;;7.70;99.90;;;;;;6127739;23;20344;-84
2023/01/12 01:22:03;;;;;;;28.25;4.95;;;7.70;99.90;;;;;;6154374;23;20160;-83
2023/01/12 01:24:28;;;;;;;31.85;6.03;;;7.80;99.90;;;;;;6153765;23;20053;-84
2023/01/12 01:26:54;;;;;;;27.98;5.47;;;7.80;99.90;;;;;;6156022;23;20009;-83
2023/01/12 01:29:19;;;;;;;24.42;5.38;;;7.90;99.90;;;;;;6154331;23;20025;-83
2023/01/12 01:31:46;;;;;;;38.45;6.40;;;7.90;99.90;;;;;;6155708;23;20018;-82
2023/01/12 01:34:12;;;;;;;28.92;5.70;;;7.80;99.90;;;;;;6153966;23;20013;-83
2023/01/12 01:36:38;;;;;;;29.23;5.47;;;7.90;99.90;;;;;;6156241;23;20063;-82
2023/01/12 01:39:04;;;;;;;28.58;5.75;;;7.80;99.90;;;;;;6153107;23;20348;-82
2023/01/12 01:41:31;;;;;;;30.92;5.90;;;8.00;99.90;;;;;;6129778;23;20025;-83
2023/01/12 01:44:24;;;;;;;27.40;5.85;;;7.80;99.90;;;;;;6154036;23;20371;-83
2023/01/12 01:46:54;;;;;;;38.40;6.63;;;7.80;99.90;;;;;;6153110;23;20013;-83
2023/01/12 01:49:38;;;;;;;33.75;6.35;;;7.80;99.90;;;;;;6153285;23;20105;-82
2023/01/12 01:52:12;;;;;;;30.58;5.95;;;7.90;99.90;;;;;;6152375;23;20024;-83
2023/01/12 01:54:54;;;;;;;27.42;5.40;;;7.90;99.90;;;;;;6155408;23;20061;-83
2023/01/12 01:57:25;;;;;;;26.48;5.32;;;7.90;99.90;;;;;;6155440;23;20084;-82
2023/01/12 01:59:53;;;;;;;23.52;4.25;;;8.00;99.90;;;;;;6152872;23;20010;-82
2023/01/12 02:02:19;;;;;;;26.73;5.82;;;8.20;99.90;;;;;;6152643;23;20235;-83
2023/01/12 02:04:45;;;;;;;30.30;5.63;;;8.00;99.90;;;;;;6128050;23;20406;-83
2023/01/12 02:07:11;;;;;;;27.80;6.05;;;8.00;99.90;;;;;;6153474;23;20012;-83
2023/01/12 02:09:37;;;;;;;26.35;5.38;;;8.00;99.90;;;;;;6152720;23;20021;-82
2023/01/12 02:17:54;;;;;;;36.00;6.00;;;8.30;99.90;;;;;;6154972;23;20025;-83
2023/01/12 02:20:35;;;;;;;31.60;6.22;;;8.00;99.90;;;;;;6127946;23;20017;-83
2023/01/12 02:23:42;;;;;;;37.67;6.13;;;8.00;99.90;;;;;;6152450;23;20068;-82
2023/01/12 02:26:36;;;;;;;40.00;6.65;;;8.00;99.90;;;;;;6092991;23;20337;-83
2023/01/12 02:29:16;;;;;;;35.47;6.53;;;8.00;99.90;;;;;;6069025;23;20050;-83
2023/01/12 02:32:23;;;;;;;26.23;5.47;;;8.10;99.90;;;;;;6092810;23;20373;-83
2023/01/12 02:34:55;;;;;;;29.90;5.90;;;8.10;99.90;;;;;;6061017;23;20010;-83
2023/01/12 02:37:35;;;;;;;30.83;6.20;;;8.10;99.90;;;;;;6068449;23;20361;-83
2023/01/12 02:40:06;;;;;;;32.83;5.85;;;8.10;99.90;;;;;;6068159;23;20477;-83
2023/01/12 02:43:00;;;;;;;33.50;6.68;;;8.10;99.90;;;;;;6068313;23;20018;-83
2023/01/12 02:45:28;;;;;;;31.80;6.03;;;8.10;99.90;;;;;;6060553;23;20010;-83
2023/01/12 02:48:19;;;;;;;27.90;6.07;;;8.10;99.90;;;;;;6092611;23;20342;-83
2023/01/12 02:50:55;;;;;;;25.50;5.85;;;8.10;99.90;;;;;;6092154;23;20097;-83
2023/01/12 02:53:43;;;;;;;36.90;8.00;;;8.10;99.90;;;;;;6092146;23;20093;-83
2023/01/12 02:56:12;;;;;;;27.83;6.45;;;8.10;99.90;;;;;;6092284;23;20377;-83
2023/01/12 02:58:46;;;;;;;27.40;5.80;;;8.10;99.90;;;;;;6068554;23;20018;-84
2023/01/12 03:01:14;;;;;;;28.85;6.80;;;8.10;99.90;;;;;;6093211;23;20022;-83
2023/01/12 03:03:41;;;;;;;31.73;6.45;;;8.10;99.90;;;;;;6152367;23;20013;-83
2023/01/12 03:06:07;;;;;;;32.28;6.93;;;8.10;99.90;;;;;;6151377;23;20010;-83
2023/01/12 03:08:36;;;;;;;31.27;6.60;;;8.10;99.90;;;;;;6154184;23;20020;-83
2023/01/12 03:11:07;;;;;;;35.58;7.20;;;8.30;99.90;;;;;;6152541;23;20018;-84
2023/01/12 03:13:36;;;;;;;34.03;7.07;;;8.20;99.90;;;;;;6154034;23;20064;-83
2023/01/12 03:16:04;;;;;;;34.85;7.50;;;8.20;99.90;;;;;;6154163;23;20023;-83
2023/01/12 03:18:35;;;;;;;40.17;7.32;;;8.20;99.90;;;;;;6153589;23;20048;-83
2023/01/12 03:21:20;;;;;;;32.67;7.45;;;8.40;99.90;;;;;;6152978;23;20432;-83
2023/01/12 03:23:49;;;;;;;31.98;7.10;;;8.20;99.90;;;;;;6153049;23;20010;-83
2023/01/12 03:26:18;;;;;;;36.92;7.10;;;8.30;99.90;;;;;;6153285;23;20391;-82
2023/01/12 03:28:50;;;;;;;39.15;7.00;;;8.20;99.90;;;;;;6151694;23;20089;-82
2023/01/12 03:31:15;;;;;;;33.75;6.82;;;8.20;99.90;;;;;;6151722;23;20053;-82
2023/01/12 03:33:43;;;;;;;28.13;6.53;;;8.30;99.90;;;;;;6153189;23;20017;-82
2023/01/12 03:36:28;;;;;;;31.73;6.35;;;8.30;99.90;;;;;;6153558;23;20085;-82
2023/01/12 03:39:15;;;;;;;26.73;6.50;;;8.30;99.90;;;;;;6153585;23;20040;-82
2023/01/12 03:41:58;;;;;;;25.77;6.45;;;8.30;99.90;;;;;;6151649;23;20340;-82
2023/01/12 03:44:32;;;;;;;35.45;7.32;;;8.30;99.90;;;;;;6151561;23;20081;-83
2023/01/12 03:47:02;;;;;;;29.67;6.45;;;8.30;99.90;;;;;;6153271;23;20036;-82
2023/01/12 03:49:37;;;;;;;28.73;6.05;;;8.40;99.90;;;;;;6153569;23;20017;-82
2023/01/12 03:52:06;;;;;;;24.00;6.30;;;8.40;99.90;;;;;;6151794;23;20013;-82
2023/01/12 03:54:33;;;;;;;28.17;6.30;;;8.40;99.90;;;;;;6151752;23;20037;-82
2023/01/12 03:57:00;;;;;;;26.25;6.18;;;8.40;99.90;;;;;;6153403;23;20010;-83
2023/01/12 03:59:26;;;;;;;23.38;6.25;;;8.70;99.90;;;;;;6151485;23;20089;-82
2023/01/12 04:01:51;;;;;;;28.65;5.93;;;8.40;99.90;;;;;;6153292;23;20021;-82
2023/01/12 04:04:18;;;;;;;24.55;5.68;;;8.40;99.90;;;;;;6151002;23;20009;-82
2023/01/12 04:06:44;;;;;;;26.02;5.68;;;8.40;99.90;;;;;;6153322;23;20020;-82
2023/01/12 04:09:10;;;;;;;29.75;6.47;;;8.40;99.90;;;;;;6153180;23;20017;-82
2023/01/12 04:14:20;;;;;;;23.63;5.43;;;8.60;99.90;;;;;;6152914;23;20021;-82
2023/01/12 04:16:45;;;;;;;21.48;5.13;;;8.40;99.90;;;;;;6152878;23;20021;-81
2023/01/12 04:19:11;;;;;;;24.63;5.20;;;8.40;99.90;;;;;;6153321;23;20009;-81
2023/01/12 04:24:21;;;;;;;27.15;5.43;;;8.40;99.90;;;;;;6153273;23;20021;-82
2023/01/12 04:26:46;;;;;;;22.42;4.95;;;8.40;99.90;;;;;;6151488;23;20392;-81
2023/01/12 04:29:12;;;;;;;18.10;4.80;;;8.40;99.90;;;;;;6151419;23;20022;-80
2023/01/12 04:31:38;;;;;;;20.83;4.78;;;8.40;99.90;;;;;;6152849;23;20014;-81
2023/01/12 04:34:04;;;;;;;18.35;4.55;;;8.50;99.90;;;;;;6153315;23;20052;-82
2023/01/12 04:36:29;;;;;;;18.20;4.20;;;8.40;99.90;;;;;;6151762;23;20436;-80
2023/01/12 04:38:55;;;;;;;12.95;4.47;;;8.50;99.90;;;;;;6153253;23;20432;-81
2023/01/12 04:41:21;;;;;;;13.20;4.47;;;8.40;99.90;;;;;;6151421;23;20052;-81
2023/01/12 04:43:46;;;;;;;14.60;4.32;;;8.40;99.90;;;;;;6151341;23;20010;-81
2023/01/12 04:46:12;;;;;;;12.50;4.00;;;8.50;99.90;;;;;;6152481;23;20006;-81
2023/01/12 04:48:39;;;;;;;15.40;4.20;;;8.50;99.90;;;;;;6151366;23;20021;-80
2023/01/12 04:51:05;;;;;;;14.23;3.70;;;8.60;99.90;;;;;;6154173;23;20013;-81
2023/01/12 04:53:31;;;;;;;12.38;3.75;;;8.70;99.90;;;;;;6128518;23;20324;-81
2023/01/12 04:55:56;;;;;;;13.25;4.00;;;8.50;99.90;;;;;;6153148;23;20013;-81
2023/01/12 04:58:23;;;;;;;15.10;4.25;;;8.40;99.90;;;;;;6153201;23;20092;-81
2023/01/12 05:00:48;;;;;;;17.00;4.20;;;8.40;99.90;;;;;;6152369;23;20385;-81
2023/01/12 05:03:15;;;;;;;13.25;3.42;;;8.40;99.90;;;;;;6154649;23;20010;-82
2023/01/12 05:05:41;;;;;;;17.20;3.83;;;8.40;99.90;;;;;;6153021;23;20010;-82
2023/01/12 05:10:55;;;;;;;10.48;2.90;;;8.40;99.90;;;;;;6153107;23;20052;-81
2023/01/12 05:13:22;;;;;;;17.30;3.92;;;8.40;99.90;;;;;;6152843;23;20020;-81
2023/01/12 05:15:48;;;;;;;11.30;3.30;;;8.40;99.90;;;;;;6152157;23;20021;-82
2023/01/12 05:18:14;;;;;;;8.38;2.67;;;8.30;99.90;;;;;;6152907;23;20010;-81
2023/01/12 05:20:40;;;;;;;10.55;3.08;;;8.50;99.90;;;;;;6154791;23;20017;-82
2023/01/12 05:23:05;;;;;;;7.82;3.00;;;8.50;99.90;;;;;;6153087;23;20013;-81
2023/01/12 05:25:32;;;;;;;11.52;3.22;;;8.30;99.90;;;;;;6155489;23;20005;-80
2023/01/12 05:27:58;;;;;;;13.10;3.80;;;8.30;99.90;;;;;;6128306;23;20097;-81
2023/01/12 05:30:25;;;;;;;8.85;3.47;;;8.30;99.90;;;;;;6154094;23;20071;-81
2023/01/12 05:32:51;;;;;;;9.48;3.38;;;8.20;99.90;;;;;;6152685;23;20017;-81
2023/01/12 05:35:17;;;;;;;9.63;3.78;;;8.20;99.90;;;;;;6154653;23;20020;-80
2023/01/12 05:37:43;;;;;;;10.77;3.65;;;8.20;99.90;;;;;;6152389;23;20013;-80
2023/01/12 05:40:09;;;;;;;12.68;3.13;;;8.20;99.90;;;;;;6152396;23;20097;-81
2023/01/12 05:45:19;;;;;;;10.35;2.97;;;8.20;99.90;;;;;;6152047;23;20080;-81
2023/01/12 05:47:45;;;;;;;7.30;3.20;;;8.30;99.90;;;;;;6154587;23;20468;-81
2023/01/12 05:50:11;;;;;;;9.15;2.88;;;8.20;99.90;;;;;;6152447;23;20345;-81
2023/01/12 05:52:36;;;;;;;11.93;3.30;;;8.20;99.90;;;;;;6152577;23;20021;-80
2023/01/12 05:55:03;;;;;;;9.27;2.88;;;8.20;99.90;;;;;;6152506;23;20104;-80
2023/01/12 05:57:29;;;;;;;7.32;2.50;;;8.20;99.90;;;;;;6128041;23;20029;-81
2023/01/12 05:59:55;;;;;;;10.15;3.53;;;8.20;99.90;;;;;;6153760;23;20017;-80
2023/01/12 06:02:21;;;;;;;10.60;3.08;;;8.50;99.90;;;;;;6154331;23;20076;-81
2023/01/12 06:04:47;;;;;;;8.82;3.05;;;8.20;99.90;;;;;;6154585;23;20328;-81
2023/01/12 06:07:14;;;;;;;10.07;3.05;;;8.10;99.90;;;;;;6154129;23;20032;-81
2023/01/12 06:09:41;;;;;;;8.25;2.42;;;8.20;99.90;;;;;;6152170;23;20013;-82
2023/01/12 06:13:55;;;;;;;6.93;2.60;;;8.20;99.90;;;;;;6153418;23;20028;-81
2023/01/12 06:15:05;;;;;;;9.75;2.83;;;8.20;99.90;;;;;;6152061;23;20025;-82
2023/01/12 06:17:31;;;;;;;8.32;2.65;;;8.20;99.90;;;;;;6152426;23;20027;-81
2023/01/12 06:19:56;;;;;;;11.07;2.72;;;8.60;99.90;;;;;;6152802;23;20083;-81
2023/01/12 06:22:22;;;;;;;7.60;2.58;;;8.20;99.90;;;;;;6127886;23;20045;-80
2023/01/12 06:24:48;;;;;;;6.30;2.30;;;8.20;99.90;;;;;;6153772;23;20092;-80
2023/01/12 06:27:15;;;;;;;10.40;2.95;;;8.30;99.90;;;;;;6151653;23;20010;-81
2023/01/12 06:29:41;;;;;;;7.13;2.30;;;8.30;99.90;;;;;;6152354;23;20075;-81
2023/01/12 06:32:07;;;;;;;7.65;2.50;;;8.40;99.90;;;;;;6153920;23;20144;-81
2023/01/12 06:34:35;;;;;;;7.22;2.38;;;8.40;99.90;;;;;;6154015;23;20464;-81
2023/01/12 06:37:02;;;;;;;5.10;2.10;;;8.40;99.90;;;;;;6154584;23;20021;-81
2023/01/12 06:39:28;;;;;;;7.75;2.00;;;8.40;99.90;;;;;;6152021;23;20045;-81
2023/01/12 06:44:38;;;;;;;6.32;1.80;;;8.40;99.90;;;;;;6153415;23;20028;-82
2023/01/12 06:47:04;;;;;;;6.13;1.75;;;8.50;99.90;;;;;;6151714;23;20388;-82
2023/01/12 06:49:30;;;;;;;8.38;2.03;;;8.80;99.90;;;;;;6151469;23;20017;-82
2023/01/12 06:51:55;;;;;;;4.32;1.63;;;8.50;99.90;;;;;;6152031;23;20068;-82
2023/01/12 06:54:21;;;;;;;4.63;1.95;;;8.60;99.90;;;;;;6151653;23;20476;-82
2023/01/12 06:56:47;;;;;;;5.07;1.95;;;8.60;99.90;;;;;;6126869;23;20024;-82
2023/01/12 06:59:12;;;;;;;3.78;1.73;;;8.60;99.90;;;;;;6127718;23;20459;-83
2023/01/12 07:01:39;;;;;;;3.47;2.03;;;8.60;99.90;;;;;;6153511;23;20332;-82
2023/01/12 07:04:04;;;;;;;5.82;2.17;;;8.70;99.90;;;;;;6153417;23;20337;-83
2023/01/12 07:06:30;;;;;;;4.30;1.88;;;8.70;99.90;;;;;;6151292;23;20013;-82
2023/01/12 07:08:56;;;;;;;3.55;1.83;;;8.80;99.90;;;;;;6151435;23;20009;-82
2023/01/12 07:11:21;;;;;;;3.38;1.70;;;8.80;99.90;;;;;;6152705;23;20014;-82
2023/01/12 07:13:47;;;;;;;5.28;1.83;;;8.90;99.90;;;;;;6150931;23;20068;-82
2023/01/12 07:16:13;;;;;;;3.85;1.75;;;8.80;99.90;;;;;;6151340;23;20021;-82
2023/01/12 07:18:38;;;;;;;3.47;1.88;;;8.80;99.90;;;;;;6151201;23;20021;-82
2023/01/12 07:21:05;;;;;;;3.33;1.70;;;8.90;99.90;;;;;;6150988;23;20093;-82
2023/01/12 07:23:31;;;;;;;6.03;2.05;;;8.90;99.90;;;;;;6151212;23;20024;-81
2023/01/12 07:25:56;;;;;;;4.18;2.25;;;9.10;99.90;;;;;;6150664;23;20021;-82
2023/01/12 07:28:22;;;;;;;4.28;2.17;;;8.90;99.90;;;;;;6126514;23;20013;-82
2023/01/12 07:30:48;;;;;;;4.05;1.95;;;8.90;99.90;;;;;;6151608;23;20024;-82
2023/01/12 07:33:14;;;;;;;7.65;2.80;;;9.00;99.90;;;;;;6153099;23;20084;-82
2023/01/12 07:35:41;;;;;;;5.13;2.30;;;9.00;99.90;;;;;;6150997;23;20048;-82
2023/01/12 07:38:07;;;;;;;5.22;2.53;;;9.00;99.90;;;;;;6151086;23;20016;-82
2023/01/12 07:40:33;;;;;;;5.93;2.80;;;9.00;99.90;;;;;;6150503;23;20018;-82
2023/01/12 07:43:00;;;;;;;8.27;2.78;;;9.30;99.90;;;;;;6153038;23;20010;-82
2023/01/12 07:45:27;;;;;;;7.22;2.47;;;9.30;99.90;;;;;;6153308;23;20056;-81
2023/01/12 07:47:53;;;;;;;6.85;2.90;;;9.10;99.90;;;;;;6151226;23;20184;-81
2023/01/12 07:50:24;;;;;;;6.47;2.90;;;9.10;99.90;;;;;;6152797;23;20333;-82
2023/01/12 07:52:50;;;;;;;9.30;3.28;;;9.20;99.90;;;;;;6151116;23;20068;-82
2023/01/12 07:55:17;;;;;;;7.53;3.05;;;9.40;99.90;;;;;;6150719;23;20021;-82
2023/01/12 07:57:52;;;;;;;13.93;3.83;;;9.20;99.90;;;;;;6153118;23;20452;-81
2023/01/12 08:00:22;;;;;;;10.00;3.53;;;9.20;99.90;;;;;;6151166;23;20026;-82
2023/01/12 08:02:48;;;;;;;9.43;3.00;;;9.30;99.90;;;;;;6152870;23;20010;-81
2023/01/12 08:05:14;;;;;;;14.82;4.35;;;9.40;99.90;;;;;;6152588;23;20021;-82
2023/01/12 08:07:39;;;;;;;17.83;4.10;;;9.30;99.90;;;;;;6152997;23;20006;-82
2023/01/12 08:10:05;;;;;;;15.77;4.53;;;9.50;99.90;;;;;;6150505;23;20024;-81
2023/01/12 08:12:31;;;;;;;23.38;5.25;;;9.50;99.90;;;;;;6151314;23;20096;-82
2023/01/12 08:14:57;;;;;;;24.67;5.53;;;9.60;99.90;;;;;;6151032;23;20206;-82
2023/01/12 08:17:23;;;;;;;29.55;5.97;;;9.60;99.90;;;;;;6151613;23;20022;-82
2023/01/12 08:19:58;;;;;;;37.17;6.22;;;9.70;99.90;;;;;;6152613;23;20103;-82
2023/01/12 08:22:29;;;;;;;29.23;6.60;;;9.70;99.90;;;;;;6126827;23;20021;-82
2023/01/12 08:25:00;;;;;;;46.97;8.68;;;9.90;99.90;;;;;;6150790;23;20017;-81
2023/01/12 08:27:29;;;;;;;41.50;7.20;;;9.80;99.90;;;;;;6155079;23;20047;-83
2023/01/12 08:29:57;;;;;;;37.85;7.07;;;10.00;99.90;;;;;;6153300;23;20014;-82
2023/01/12 08:32:23;;;;;;;42.20;7.13;;;9.90;99.90;;;;;;6153381;23;20044;-81
2023/01/12 08:34:52;;;;;;;43.08;7.28;;;9.90;99.90;;;;;;6153241;23;20021;-82
2023/01/12 08:37:21;;;;;;;32.30;6.95;;;10.00;99.90;;;;;;6153058;23;20044;-82
2023/01/12 08:39:48;;;;;;;43.88;8.60;;;10.00;99.90;;;;;;6152524;23;20025;-82
2023/01/12 08:42:13;;;;;;;36.60;7.20;;;10.10;99.90;;;;;;6153008;23;20373;-82
2023/01/12 08:44:39;;;;;;;42.10;7.38;;;10.10;99.90;;;;;;6128369;23;20022;-81
2023/01/12 08:47:13;;;;;;;31.73;5.80;;;10.40;99.90;;;;;;6152742;23;20018;-82
2023/01/12 08:49:38;;;;;;;40.95;7.32;;;10.10;99.90;;;;;;6152905;23;20021;-82
2023/01/12 08:52:04;;;;;;;27.80;5.63;;;10.10;99.90;;;;;;6154597;23;20070;-82
2023/01/12 08:54:30;;;;;;;40.60;6.82;;;10.20;99.90;;;;;;6152164;23;20009;-82
2023/01/12 08:56:55;;;;;;;28.25;5.80;;;10.20;99.90;;;;;;6152956;23;20017;-82
2023/01/12 08:59:21;;;;;;;36.90;7.25;;;10.20;99.90;;;;;;6154167;23;20013;-82
2023/01/12 09:01:47;;;;;;;38.20;6.65;;;10.20;99.90;;;;;;6154716;23;20014;-82
2023/01/12 09:04:13;;;;;;;33.83;6.80;;;10.60;99.90;;;;;;6152585;23;20093;-81
2023/01/12 09:06:41;;;;;;;32.30;7.03;;;10.30;99.90;;;;;;6154651;23;20208;-83
2023/01/12 09:09:10;;;;;;;37.97;7.78;;;10.20;99.90;;;;;;6154101;23;20014;-83
2023/01/12 09:11:37;;;;;;;43.83;7.15;;;10.30;99.90;;;;;;6152700;23;20025;-82
2023/01/12 09:14:03;;;;;;;43.45;7.55;;;10.30;99.90;;;;;;6152284;23;20047;-82
2023/01/12 09:16:30;;;;;;;38.25;8.18;;;10.30;99.90;;;;;;6152350;23;20088;-82
2023/01/12 09:18:56;;;;;;;49.67;7.53;;;10.40;99.90;;;;;;6154378;23;20009;-82
2023/01/12 09:21:24;;;;;;;36.15;7.15;;;10.50;99.90;;;;;;6153520;23;20076;-83
2023/01/12 09:23:51;;;;;;;28.35;5.78;;;10.40;99.90;;;;;;6154393;23;20016;-83
2023/01/12 09:26:39;;;;;;;34.03;6.30;;;10.50;99.90;;;;;;6152593;23;20026;-82
2023/01/12 09:29:06;;;;;;;33.45;6.38;;;10.40;99.90;;;;;;6152228;23;20049;-82
2023/01/12 09:31:33;;;;;;;30.73;6.18;;;10.40;99.90;;;;;;6152542;23;20400;-83
2023/01/12 09:33:59;;;;;;;31.40;5.80;;;10.50;99.90;;;;;;6152047;23;20013;-83
2023/01/12 09:36:31;;;;;;;36.47;6.38;;;10.50;99.90;;;;;;6151784;23;20016;-84
2023/01/12 09:38:57;;;;;;;30.02;5.68;;;10.60;99.90;;;;;;6154180;23;20112;-82
2023/01/12 09:47:06;;;;;;;32.90;5.95;;;10.70;99.90;;;;;;6151948;23;20021;-84
2023/01/12 09:49:43;;;;;;;34.92;6.28;;;10.60;99.90;;;;;;6152133;23;20040;-83
2023/01/12 09:52:20;;;;;;;29.05;5.45;;;10.60;99.90;;;;;;6151653;23;20014;-83
2023/01/12 09:54:50;;;;;;;28.10;5.38;;;10.70;99.90;;;;;;6153591;23;20028;-84
2023/01/12 09:57:41;;;;;;;29.65;6.13;;;10.70;99.90;;;;;;6152017;23;20018;-83
2023/01/12 10:00:10;;;;;;;27.85;6.10;;;10.70;99.90;;;;;;6151856;23;20021;-83
2023/01/12 10:02:39;;;;;;;26.75;5.22;;;10.70;99.90;;;;;;6151851;23;20078;-83
2023/01/12 10:05:12;;;;;;;26.80;5.55;;;10.70;99.90;;;;;;6151389;23;20049;-84
2023/01/12 10:07:38;;;;;;;25.10;5.03;;;10.80;99.90;;;;;;6152324;23;20045;-84
2023/01/12 10:10:05;;;;;;;30.00;5.68;;;10.80;99.90;;;;;;6153790;23;20017;-85
2023/01/12 10:12:40;;;;;;;31.00;5.63;;;10.80;99.90;;;;;;6151783;23;20021;-84
2023/01/12 10:15:39;;;;;;;28.00;6.07;;;10.80;99.90;;;;;;6151401;23;20025;-83
2023/01/12 10:18:38;;;;;;;24.92;5.93;;;10.80;99.90;;;;;;6151657;23;20022;-83
2023/01/12 10:21:08;;;;;;;23.45;5.57;;;10.90;99.90;;;;;;6150776;23;20013;-83
2023/01/12 10:23:34;;;;;;;20.98;4.80;;;10.90;99.90;;;;;;6153417;23;20009;-83
2023/01/12 10:26:22;;;;;;;29.80;4.90;;;10.90;99.90;;;;;;6151487;23;20035;-84
2023/01/12 10:28:51;;;;;;;26.15;5.68;;;10.90;99.90;;;;;;6151617;23;20092;-83
2023/01/12 10:31:24;;;;;;;23.27;5.68;;;11.10;99.90;;;;;;6151435;23;20025;-83
2023/01/12 10:34:06;;;;;;;29.13;5.68;;;11.00;99.90;;;;;;6153026;23;20072;-83
2023/01/12 10:36:35;;;;;;;22.27;4.82;;;11.10;99.90;;;;;;6151405;23;20043;-83
2023/01/12 10:39:03;;;;;;;26.90;5.82;;;11.10;99.90;;;;;;6127001;23;20017;-83
2023/01/12 10:41:33;;;;;;;31.85;6.50;;;11.10;99.90;;;;;;6153206;23;20013;-84
2023/01/12 10:43:59;;;;;;;25.23;5.70;;;11.10;99.90;;;;;;6128885;23;20013;-83
2023/01/12 10:46:27;;;;;;;25.52;5.30;;;11.10;99.90;;;;;;6130347;23;20048;-82
2023/01/12 10:49:12;;;;;;;21.25;4.50;;;11.10;99.90;;;;;;6154079;23;20076;-83
2023/01/12 10:51:49;;;;;;;26.70;5.47;;;11.00;99.90;;;;;;6153224;23;20060;-81
2023/01/12 10:54:18;;;;;;;22.15;5.25;;;11.20;99.90;;;;;;6153393;23;20052;-82
2023/01/12 10:57:01;;;;;;;23.73;4.80;;;11.20;99.90;;;;;;6155275;23;20089;-84
2023/01/12 10:59:32;;;;;;;30.17;5.10;;;11.10;99.90;;;;;;6153737;23;20017;-82
2023/01/12 11:01:58;;;;;;;26.10;4.88;;;11.10;99.90;;;;;;6152949;23;20353;-82
2023/01/12 11:04:27;;;;;;;23.33;5.40;;;11.10;99.90;;;;;;6152611;23;20020;-83
2023/01/12 11:07:02;;;;;;;24.45;4.88;;;11.20;99.90;;;;;;6153005;23;20009;-82
2023/01/12 11:09:29;;;;;;;24.52;4.65;;;11.20;99.90;;;;;;6153959;23;20476;-82
2023/01/12 11:11:57;;;;;;;24.85;5.55;;;11.30;99.90;;;;;;6154403;23;20329;-83
2023/01/12 11:14:27;;;;;;;25.52;4.50;;;11.20;99.90;;;;;;6151774;23;20014;-83
2023/01/12 11:16:54;;;;;;;27.38;4.95;;;11.20;99.90;;;;;;6152013;23;20485;-82
2023/01/12 11:19:30;;;;;;;22.52;4.75;;;11.30;99.90;;;;;;6151164;23;20155;-83
2023/01/12 11:22:27;;;;;;;26.10;4.88;;;11.20;99.90;;;;;;6128389;23;20021;-83
2023/01/12 11:25:12;;;;;;;28.35;5.50;;;11.10;99.90;;;;;;6152788;23;20470;-82
2023/01/12 11:27:47;;;;;;;24.33;5.30;;;11.20;99.90;;;;;;6153894;23;20013;-83
2023/01/12 11:30:36;;;;;;;26.95;4.88;;;11.30;99.90;;;;;;6153658;23;20014;-82
2023/01/12 11:33:07;;;;;;;20.75;4.50;;;11.30;99.90;;;;;;6154456;23;20433;-83
2023/01/12 11:36:05;;;;;;;23.25;4.80;;;11.40;99.90;;;;;;6154185;23;20449;-83
2023/01/12 11:38:37;;;;;;;25.58;4.60;;;11.40;99.90;;;;;;6123044;23;20024;-81
2023/01/12 11:41:08;;;;;;;24.80;5.40;;;11.40;99.90;;;;;;6154909;23;20147;-82
2023/01/12 11:43:49;;;;;;;28.38;5.70;;;11.40;99.90;;;;;;6127817;23;20029;-82
2023/01/12 11:46:43;;;;;;;23.27;5.28;;;11.50;99.90;;;;;;6153828;23;20010;-82
2023/01/12 11:49:26;;;;;;;21.88;4.30;;;11.50;99.90;;;;;;6153272;23;20344;-82
2023/01/12 11:51:57;;;;;;;;;;;11.50;99.90;;;;;;6153583;23;20045;-82
2023/01/12 11:54:24;;;;;;;18.65;4.75;;;11.60;99.90;;;;;;6153983;23;20009;-83
2023/01/12 11:57:11;;;;;;;25.92;5.80;;;11.60;99.90;;;;;;6152495;23;20033;-82
2023/01/12 11:59:56;;;;;;;21.38;4.57;;;11.70;99.90;;;;;;6154533;23;20095;-82
2023/01/12 12:02:54;;;;;;;24.35;4.95;;;11.70;99.90;;;;;;6153821;23;20069;-82
2023/01/12 12:05:50;;;;;;;22.85;5.15;;;11.80;99.90;;;;;;6153528;23;20013;-82
2023/01/12 12:08:51;;;;;;;18.17;4.95;;;11.80;99.90;;;;;;6129973;23;20064;-82
2023/01/12 12:11:55;;;;;;;24.42;5.38;;;11.80;99.90;;;;;;6154337;23;20048;-82
2023/01/12 12:14:33;;;;;;;22.17;4.03;;;11.80;99.90;;;;;;6121453;23;20021;-82
2023/01/12 12:17:17;;;;;;;25.25;4.40;;;11.80;99.90;;;;;;6153493;23;20455;-83
2023/01/12 12:19:57;;;;;;;21.40;4.40;;;11.80;99.90;;;;;;6153908;23;20028;-83
2023/01/12 12:22:50;;;;;;;22.10;4.57;;;11.80;99.90;;;;;;6155673;23;20009;-82
2023/01/12 12:25:47;;;;;;;22.17;4.80;;;11.80;99.90;;;;;;6153882;23;20405;-82
2023/01/12 12:28:39;;;;;;;21.92;4.13;;;11.80;99.90;;;;;;6157026;23;20013;-82
2023/01/12 12:31:43;;;;;;;20.85;4.18;;;11.70;99.90;;;;;;6155529;23;20017;-83
2023/01/12 12:34:40;;;;;;;18.48;4.80;;;11.70;99.90;;;;;;6156076;23;20013;-82
2023/01/12 12:37:19;;;;;;;19.33;4.22;;;11.60;99.90;;;;;;6070100;23;20033;-82
2023/01/12 12:39:48;;;;;;;22.95;4.13;;;11.60;99.90;;;;;;6069651;23;20019;-82
2023/01/12 12:45:48;;;;;;;27.05;5.28;;;11.60;99.90;;;;;;6093447;23;20018;-82
2023/01/12 12:48:21;;;;;;;20.73;4.22;;;11.50;99.90;;;;;;6045954;23;20114;-82
2023/01/12 12:51:07;;;;;;;22.55;4.53;;;11.50;99.90;;;;;;6094073;23;20470;-83
2023/01/12 12:53:46;;;;;;;23.15;4.90;;;11.60;99.90;;;;;;6070136;23;20101;-83
2023/01/12 12:56:15;;;;;;;20.42;4.20;;;11.70;99.90;;;;;;6069731;23;20015;-82
2023/01/12 12:58:49;;;;;;;25.63;5.53;;;11.50;99.90;;;;;;6069727;23;20382;-83
2023/01/12 13:01:24;;;;;;;17.83;4.07;;;11.60;99.90;;;;;;6093939;23;20046;-82
2023/01/12 13:03:53;;;;;;;19.05;4.65;;;11.60;99.90;;;;;;6045859;23;20600;-82
2023/01/12 13:06:29;;;;;;;19.90;4.55;;;11.60;99.90;;;;;;6069139;23;20061;-82
2023/01/12 13:09:10;;;;;;;20.92;4.90;;;11.60;99.90;;;;;;6069490;23;20093;-82
2023/01/12 13:11:58;;;;;;;18.92;4.28;;;11.60;99.90;;;;;;6093483;23;20014;-83
2023/01/12 13:14:37;;;;;;;19.95;4.80;;;11.60;99.90;;;;;;6143941;23;20393;-83
2023/01/12 13:17:22;;;;;;;23.70;5.35;;;11.50;99.90;;;;;;6154463;23;20099;-81
2023/01/12 13:19:58;;;;;;;24.17;4.68;;;11.50;99.90;;;;;;6153255;23;20024;-83
2023/01/12 13:22:44;;;;;;;24.35;4.53;;;11.40;99.90;;;;;;6155511;23;20333;-82
2023/01/12 13:25:18;;;;;;;21.95;4.85;;;11.50;99.90;;;;;;6153438;23;20013;-83
2023/01/12 13:27:55;;;;;;;;;;;11.40;99.90;;;;;;6153864;23;20024;-82
2023/01/12 13:30:34;;;;;;;24.52;5.43;;;11.40;99.90;;;;;;6154050;23;19916;-82
2023/01/12 13:33:14;;;;;;;22.40;5.53;;;11.50;99.90;;;;;;6153977;23;20028;-83
2023/01/12 13:35:43;;;;;;;28.38;6.03;;;11.50;99.90;;;;;;6153536;23;20111;-82
2023/01/12 13:38:42;;;;;;;28.48;5.93;;;11.80;99.90;;;;;;6155285;23;20053;-82
2023/01/12 13:44:36;;;;;;;30.05;5.75;;;11.50;99.90;;;;;;6153949;23;20018;-82